Time;durP1;ratioP1;P1;durP2;ratioP2;P2;SDS_P1;SDS_P2;PMS_P1;PMS_P2;Temp;Humidity;BMP_temperature;BMP_pressure;BME280_temperature;BME280_humidity;BME280_pressure;Samples;Min_cycle;Max_cycle;Signal;HPM_P1;HPM_P2
2021/03/01 00:01:44;;;;;;;28.33;14.15;;;5.70;84.90;;;;;;4915447;29;20040;-86
2021/03/01 00:04:09;;;;;;;17.23;9.55;;;5.70;85.10;;;;;;4921979;29;20036;-85
2021/03/01 00:06:35;;;;;;;16.10;10.00;;;5.70;85.40;;;;;;4924020;29;20059;-84
2021/03/01 00:09:01;;;;;;;14.18;8.63;;;5.70;85.40;;;;;;4916808;29;20047;-86
2021/03/01 00:11:26;;;;;;;15.07;9.55;;;5.80;85.20;;;;;;4904596;29;20051;-85
2021/03/01 00:13:52;;;;;;;17.13;10.20;;;5.80;85.10;;;;;;4893850;29;20077;-85
2021/03/01 00:16:17;;;;;;;17.00;9.82;;;5.70;85.20;;;;;;4908088;29;20391;-85
2021/03/01 00:18:43;;;;;;;20.13;11.65;;;5.80;85.30;;;;;;4901910;29;20020;-85
2021/03/01 00:21:08;;;;;;;25.40;14.63;;;5.80;85.20;;;;;;4906319;29;20029;-86
2021/03/01 00:23:34;;;;;;;18.27;10.70;;;5.80;85.30;;;;;;4902217;29;20021;-85
2021/03/01 00:25:59;;;;;;;20.02;12.10;;;5.80;85.50;;;;;;4911327;29;20040;-86
2021/03/01 00:28:25;;;;;;;22.17;12.98;;;5.80;85.30;;;;;;4905397;29;20027;-84
2021/03/01 00:30:50;;;;;;;25.17;14.00;;;5.80;85.00;;;;;;4933388;29;20031;-85
2021/03/01 00:33:16;;;;;;;20.33;11.65;;;5.80;85.30;;;;;;4900523;29;20037;-85
2021/03/01 00:35:41;;;;;;;28.17;15.52;;;5.80;85.20;;;;;;4911891;29;20028;-85
2021/03/01 00:38:07;;;;;;;24.75;14.30;;;5.80;85.50;;;;;;4906964;29;20021;-85
2021/03/01 00:40:32;;;;;;;27.83;15.52;;;5.80;85.60;;;;;;4892832;29;20040;-85
2021/03/01 00:42:58;;;;;;;25.63;14.32;;;5.70;85.70;;;;;;4903571;29;20035;-85
2021/03/01 00:45:24;;;;;;;29.17;15.07;;;5.70;85.90;;;;;;4908237;29;20028;-84
2021/03/01 00:47:49;;;;;;;31.05;16.77;;;5.70;85.90;;;;;;4908078;29;20032;-85
2021/03/01 00:50:15;;;;;;;23.20;12.95;;;5.70;86.20;;;;;;4900424;29;20408;-85
2021/03/01 00:52:40;;;;;;;22.08;12.15;;;5.70;86.20;;;;;;4905901;29;20111;-85
2021/03/01 00:55:07;;;;;;;25.92;13.95;;;5.70;86.10;;;;;;4901482;29;20548;-85
2021/03/01 00:57:32;;;;;;;19.20;10.90;;;5.80;85.90;;;;;;4907369;29;20460;-86
2021/03/01 00:59:58;;;;;;;17.50;8.98;;;5.80;85.80;;;;;;4901713;29;20047;-87
2021/03/01 01:02:23;;;;;;;17.05;9.60;;;5.90;85.50;;;;;;4913669;29;20063;-84
2021/03/01 01:04:49;;;;;;;27.33;15.07;;;5.90;85.40;;;;;;4901775;29;20040;-86
2021/03/01 01:07:15;;;;;;;24.42;14.35;;;5.90;85.40;;;;;;4917409;29;20107;-86
2021/03/01 01:09:40;;;;;;;29.88;15.40;;;5.80;85.70;;;;;;4921477;29;20552;-86
2021/03/01 01:12:07;;;;;;;19.63;11.15;;;5.70;86.10;;;;;;4920126;29;20563;-86
2021/03/01 01:14:33;;;;;;;20.50;11.70;;;5.80;86.30;;;;;;4900248;29;20048;-84
2021/03/01 01:16:58;;;;;;;23.23;11.88;;;5.80;86.00;;;;;;4904727;29;20418;-85
2021/03/01 01:19:24;;;;;;;27.05;14.95;;;6.00;85.80;;;;;;4899812;29;20024;-85
2021/03/01 01:21:51;;;;;;;17.77;10.60;;;5.80;85.60;;;;;;4908910;29;20032;-86
2021/03/01 01:24:16;;;;;;;24.88;13.02;;;5.90;85.70;;;;;;4906680;29;20114;-85
2021/03/01 01:26:42;;;;;;;31.55;17.60;;;5.90;85.50;;;;;;4913555;29;20143;-86
2021/03/01 01:29:08;;;;;;;26.80;14.02;;;6.00;85.60;;;;;;4903172;29;20038;-86
2021/03/01 01:31:33;;;;;;;28.17;15.73;;;5.90;85.60;;;;;;4936293;28;20051;-85
2021/03/01 01:33:59;;;;;;;25.67;13.70;;;5.90;85.70;;;;;;4913926;29;20186;-86
2021/03/01 01:36:24;;;;;;;39.08;20.50;;;5.90;85.70;;;;;;4904868;29;20024;-86
2021/03/01 01:38:50;;;;;;;35.25;18.90;;;5.90;85.80;;;;;;4897431;29;20060;-85
2021/03/01 01:41:16;;;;;;;22.55;12.30;;;5.80;85.70;;;;;;4898407;29;20040;-86
2021/03/01 01:43:42;;;;;;;26.88;14.57;;;5.80;85.90;;;;;;4906484;29;20164;-85
2021/03/01 01:46:07;;;;;;;34.40;18.42;;;5.80;86.00;;;;;;4923430;29;20028;-85
2021/03/01 01:48:33;;;;;;;29.40;16.58;;;5.80;86.00;;;;;;4916765;29;20031;-85
2021/03/01 01:50:58;;;;;;;27.92;16.52;;;5.70;86.30;;;;;;4907289;29;20036;-85
2021/03/01 01:53:24;;;;;;;33.38;18.23;;;5.60;86.40;;;;;;4915798;29;20046;-85
2021/03/01 01:55:50;;;;;;;31.63;16.92;;;5.60;86.70;;;;;;4906301;29;20046;-86
2021/03/01 01:58:16;;;;;;;33.42;18.55;;;5.60;86.80;;;;;;4902654;29;20036;-86
2021/03/01 02:00:47;;;;;;;24.27;13.77;;;5.60;86.80;;;;;;4909059;29;20024;-87
2021/03/01 02:03:38;;;;;;;31.40;17.73;;;5.60;86.70;;;;;;4909224;29;20054;-85
2021/03/01 02:06:15;;;;;;;27.95;14.13;;;5.60;86.70;;;;;;4909183;29;20076;-85
2021/03/01 02:09:19;;;;;;;33.80;18.30;;;5.60;86.70;;;;;;4908407;29;20039;-85
2021/03/01 02:11:52;;;;;;;31.60;16.45;;;5.60;86.70;;;;;;4899465;29;20662;-85
2021/03/01 02:14:21;;;;;;;;;;;5.60;86.60;;;;;;4897664;29;20391;-84
2021/03/01 02:16:47;;;;;;;19.95;11.05;;;5.60;87.10;;;;;;4905313;29;20409;-85
2021/03/01 02:19:15;;;;;;;23.45;12.98;;;5.70;86.50;;;;;;4911786;29;20116;-85
2021/03/01 02:21:44;;;;;;;15.43;8.98;;;5.80;86.30;;;;;;4906512;29;20102;-85
2021/03/01 02:24:12;;;;;;;16.45;8.90;;;5.90;85.90;;;;;;4933768;29;20031;-84
2021/03/01 02:26:39;;;;;;;17.92;10.05;;;6.00;85.60;;;;;;4912981;29;20025;-84
2021/03/01 02:29:11;;;;;;;26.55;15.13;;;6.10;85.10;;;;;;4913214;29;20032;-85
2021/03/01 02:31:39;;;;;;;22.10;12.27;;;6.10;84.80;;;;;;4913861;29;20036;-85
2021/03/01 02:34:06;;;;;;;31.65;17.88;;;6.10;84.70;;;;;;4915033;29;20036;-87
2021/03/01 02:36:38;;;;;;;23.15;13.70;;;6.00;84.70;;;;;;4908094;29;20020;-85
2021/03/01 02:39:05;;;;;;;20.95;11.82;;;6.00;85.00;;;;;;4905632;29;20036;-85
2021/03/01 02:41:32;;;;;;;19.58;11.18;;;6.00;84.90;;;;;;4911516;29;20400;-84
2021/03/01 02:43:58;;;;;;;22.02;12.90;;;6.10;84.90;;;;;;4911216;29;20677;-84
2021/03/01 02:46:24;;;;;;;20.70;11.63;;;6.10;84.50;;;;;;4905945;29;20169;-85
2021/03/01 02:48:51;;;;;;;23.83;13.57;;;6.10;84.50;;;;;;4908381;29;20387;-86
2021/03/01 02:51:17;;;;;;;22.02;12.73;;;6.00;84.50;;;;;;4906924;29;20278;-85
2021/03/01 02:53:43;;;;;;;19.05;10.63;;;6.00;84.50;;;;;;4912245;29;20021;-83
2021/03/01 02:56:09;;;;;;;26.25;15.90;;;6.10;84.50;;;;;;4910484;29;20036;-85
2021/03/01 02:58:38;;;;;;;25.90;14.93;;;6.10;84.30;;;;;;4909530;29;20392;-85
2021/03/01 03:01:05;;;;;;;30.35;18.42;;;6.00;84.30;;;;;;4904958;29;20039;-85
2021/03/01 03:03:32;;;;;;;30.92;19.00;;;5.90;84.40;;;;;;4920089;29;20032;-85
2021/03/01 03:05:58;;;;;;;23.38;14.07;;;5.80;84.60;;;;;;4911774;29;20464;-85
2021/03/01 03:08:24;;;;;;;25.63;14.68;;;5.80;84.70;;;;;;4933034;29;20124;-83
2021/03/01 03:10:51;;;;;;;31.45;18.52;;;5.70;84.70;;;;;;4905025;29;20032;-85
2021/03/01 03:13:19;;;;;;;25.73;15.30;;;5.70;84.90;;;;;;4915905;29;20118;-85
2021/03/01 03:15:49;;;;;;;25.80;15.98;;;5.70;85.00;;;;;;4911679;29;20017;-86
2021/03/01 03:18:18;;;;;;;24.48;14.43;;;5.60;85.10;;;;;;4909408;29;20448;-86
2021/03/01 03:20:45;;;;;;;22.92;12.90;;;5.70;85.10;;;;;;4898303;29;20052;-86
2021/03/01 03:23:12;;;;;;;16.30;10.15;;;5.70;85.00;;;;;;4910529;29;20045;-86
2021/03/01 03:25:37;;;;;;;18.63;11.15;;;5.80;84.80;;;;;;4911279;29;20029;-87
2021/03/01 03:28:06;;;;;;;18.05;11.18;;;5.80;84.70;;;;;;4898424;29;20039;-86
2021/03/01 03:30:33;;;;;;;21.27;12.75;;;5.80;84.60;;;;;;4895681;29;20032;-85
2021/03/01 03:32:59;;;;;;;18.77;11.05;;;5.90;84.40;;;;;;4914006;29;20084;-85
2021/03/01 03:35:26;;;;;;;21.48;13.95;;;5.90;84.30;;;;;;4887567;29;20425;-85
2021/03/01 03:38:10;;;;;;;20.83;11.60;;;5.80;84.30;;;;;;4911546;29;20175;-85
2021/03/01 03:40:36;;;;;;;29.30;18.17;;;5.90;84.40;;;;;;4914356;29;20024;-84
2021/03/01 03:43:04;;;;;;;26.63;15.80;;;5.80;84.30;;;;;;4914656;29;20028;-85
2021/03/01 03:45:30;;;;;;;20.95;13.15;;;5.80;84.30;;;;;;4913524;29;20036;-84
2021/03/01 03:48:01;;;;;;;23.52;13.88;;;5.70;85.10;;;;;;4907785;29;20039;-85
2021/03/01 03:50:27;;;;;;;23.88;14.00;;;5.70;84.50;;;;;;4914493;29;20734;-85
2021/03/01 03:52:59;;;;;;;22.20;13.80;;;5.70;84.40;;;;;;4911851;29;20043;-84
2021/03/01 03:55:27;;;;;;;21.05;13.23;;;5.70;84.50;;;;;;4906258;29;20025;-84
2021/03/01 03:58:02;;;;;;;23.70;13.80;;;5.70;84.50;;;;;;4910330;29;20032;-84
2021/03/01 04:00:31;;;;;;;21.33;13.70;;;5.70;84.50;;;;;;4912832;29;20495;-86
2021/03/01 04:03:01;;;;;;;22.98;14.65;;;5.70;84.50;;;;;;4914291;29;20040;-86
2021/03/01 04:05:28;;;;;;;21.35;12.77;;;5.70;84.70;;;;;;4909044;29;20039;-85
2021/03/01 04:07:55;;;;;;;22.27;14.38;;;5.70;84.60;;;;;;4906253;29;20099;-86
2021/03/01 04:10:23;;;;;;;24.27;14.25;;;5.70;84.50;;;;;;4907842;29;20546;-85
2021/03/01 04:12:52;;;;;;;23.10;15.20;;;5.60;84.40;;;;;;4914066;29;20060;-84
2021/03/01 04:15:18;;;;;;;17.63;10.60;;;5.50;84.30;;;;;;4896232;29;20119;-84
2021/03/01 04:17:45;;;;;;;22.40;15.00;;;5.50;84.50;;;;;;4913630;29;20135;-86
2021/03/01 04:20:12;;;;;;;16.23;10.40;;;5.40;84.50;;;;;;4897437;29;20024;-86
2021/03/01 04:22:40;;;;;;;19.33;11.95;;;5.40;84.60;;;;;;4893406;29;20032;-86
2021/03/01 04:25:08;;;;;;;19.55;13.43;;;5.50;84.60;;;;;;4904805;29;20084;-85
2021/03/01 04:27:37;;;;;;;17.88;11.27;;;5.40;84.70;;;;;;4910083;29;20032;-85
2021/03/01 04:30:07;;;;;;;21.10;14.13;;;5.40;84.80;;;;;;4904124;29;20028;-85
2021/03/01 04:32:35;;;;;;;20.20;12.80;;;5.40;84.70;;;;;;4896337;29;20128;-85
2021/03/01 04:35:02;;;;;;;20.42;12.63;;;5.30;84.80;;;;;;4913472;29;20024;-85
2021/03/01 04:37:27;;;;;;;18.08;10.93;;;5.30;84.90;;;;;;4896076;29;20036;-85
2021/03/01 04:39:53;;;;;;;15.52;9.93;;;5.30;85.10;;;;;;4913872;29;20025;-85
2021/03/01 04:42:19;;;;;;;20.88;13.57;;;5.40;85.10;;;;;;4908793;29;20029;-84
2021/03/01 04:44:46;;;;;;;20.13;12.35;;;5.30;84.90;;;;;;4928546;29;20024;-85
2021/03/01 04:47:13;;;;;;;21.05;12.75;;;5.30;85.10;;;;;;4891585;29;20420;-85
2021/03/01 04:49:39;;;;;;;22.63;13.48;;;5.30;85.10;;;;;;4909757;29;20188;-85
2021/03/01 04:52:05;;;;;;;20.90;13.18;;;5.30;85.10;;;;;;4915946;29;20130;-85
2021/03/01 04:54:32;;;;;;;19.33;11.40;;;5.30;85.10;;;;;;4915936;29;20028;-84
2021/03/01 04:56:58;;;;;;;25.85;15.27;;;5.40;85.00;;;;;;4909494;29;20537;-84
2021/03/01 04:59:26;;;;;;;26.38;15.38;;;5.40;84.90;;;;;;4913402;29;20456;-84
2021/03/01 05:01:53;;;;;;;23.95;13.65;;;5.30;84.90;;;;;;4907983;29;20028;-84
2021/03/01 05:04:19;;;;;;;20.92;12.30;;;5.30;84.90;;;;;;4898779;29;20028;-83
2021/03/01 05:06:45;;;;;;;23.63;14.38;;;5.30;85.00;;;;;;4896409;29;20046;-83
2021/03/01 05:09:11;;;;;;;22.90;13.73;;;5.40;84.80;;;;;;4910549;29;20024;-84
2021/03/01 05:11:39;;;;;;;25.70;15.98;;;5.40;84.70;;;;;;4909207;29;20440;-84
2021/03/01 05:14:06;;;;;;;28.33;16.92;;;5.40;84.40;;;;;;4900326;29;20490;-84
2021/03/01 05:16:32;;;;;;;16.92;10.70;;;5.20;84.40;;;;;;4913696;29;20432;-84
2021/03/01 05:18:58;;;;;;;24.70;15.50;;;5.20;84.70;;;;;;4913387;29;20020;-84
2021/03/01 05:21:24;;;;;;;25.00;15.20;;;5.20;84.90;;;;;;4908897;29;20032;-84
2021/03/01 05:23:51;;;;;;;23.65;14.80;;;5.20;84.90;;;;;;4897750;29;20499;-83
2021/03/01 05:26:18;;;;;;;24.90;14.82;;;5.20;84.80;;;;;;4902732;29;20063;-83
2021/03/01 05:28:44;;;;;;;31.50;18.02;;;5.10;84.80;;;;;;4903865;29;20048;-83
2021/03/01 05:31:10;;;;;;;27.13;17.42;;;5.20;85.00;;;;;;4909084;29;20028;-86
2021/03/01 05:33:36;;;;;;;27.77;15.57;;;5.10;85.00;;;;;;4899291;29;20079;-85
2021/03/01 05:36:02;;;;;;;23.92;14.75;;;5.10;84.80;;;;;;4910970;29;20025;-84
2021/03/01 05:38:28;;;;;;;30.70;18.60;;;5.00;85.00;;;;;;4895963;29;20115;-84
2021/03/01 05:40:54;;;;;;;29.67;16.25;;;4.90;85.00;;;;;;4913731;29;20146;-84
2021/03/01 05:43:23;;;;;;;29.83;17.45;;;4.80;85.30;;;;;;4916807;29;20024;-85
2021/03/01 05:45:50;;;;;;;25.05;15.23;;;4.80;85.50;;;;;;4912542;29;20492;-83
2021/03/01 05:48:20;;;;;;;31.17;18.30;;;4.70;85.70;;;;;;4915598;29;20025;-84
2021/03/01 05:50:47;;;;;;;28.77;16.35;;;4.70;86.00;;;;;;4897411;29;20119;-83
2021/03/01 05:53:19;;;;;;;30.30;18.27;;;4.70;86.00;;;;;;4902436;29;20052;-84
2021/03/01 05:55:46;;;;;;;;;;;4.60;86.10;;;;;;4915128;29;20049;-84
2021/03/01 05:58:12;;;;;;;29.95;16.42;;;4.50;86.20;;;;;;4916030;29;19911;-85
2021/03/01 06:00:38;;;;;;;29.80;17.50;;;4.50;86.70;;;;;;4913538;29;20058;-85
2021/03/01 06:03:04;;;;;;;24.42;14.50;;;4.40;86.80;;;;;;4909835;29;20076;-84
2021/03/01 06:05:30;;;;;;;31.33;18.23;;;4.40;86.80;;;;;;4915456;29;20071;-84
2021/03/01 06:07:56;;;;;;;22.42;13.15;;;4.40;86.70;;;;;;4910447;29;20470;-85
2021/03/01 06:10:23;;;;;;;23.92;14.05;;;4.40;86.70;;;;;;4913859;29;20035;-84
2021/03/01 06:12:48;;;;;;;23.77;14.10;;;4.50;86.70;;;;;;4903806;29;20532;-84
2021/03/01 06:15:15;;;;;;;30.58;16.73;;;4.30;86.70;;;;;;4921695;29;20071;-86
2021/03/01 06:17:40;;;;;;;20.17;12.15;;;4.30;86.70;;;;;;4916415;29;20028;-85
2021/03/01 06:20:10;;;;;;;32.28;17.80;;;4.40;86.80;;;;;;4927991;29;20055;-85
2021/03/01 06:22:41;;;;;;;28.83;15.80;;;4.40;86.50;;;;;;4895606;29;20028;-85
2021/03/01 06:25:17;;;;;;;22.55;13.05;;;4.30;86.60;;;;;;4909176;29;20120;-85
2021/03/01 06:27:49;;;;;;;17.05;9.88;;;4.40;86.70;;;;;;4910621;29;20491;-85
2021/03/01 06:30:15;;;;;;;18.90;10.40;;;4.40;86.50;;;;;;4898201;29;20044;-85
2021/03/01 06:32:41;;;;;;;18.20;9.77;;;4.50;86.30;;;;;;4921480;29;20164;-85
2021/03/01 06:35:32;;;;;;;35.13;15.55;;;4.50;86.10;;;;;;4911175;29;20212;-85
2021/03/01 06:38:18;;;;;;;31.35;16.48;;;4.50;85.90;;;;;;4908782;29;20491;-87
2021/03/01 06:41:05;;;;;;;22.65;13.43;;;4.40;85.70;;;;;;4908142;29;20384;-88
2021/03/01 06:43:31;;;;;;;22.20;12.48;;;4.20;85.60;;;;;;4912273;29;20016;-88
2021/03/01 06:46:13;;;;;;;19.70;11.30;;;4.10;86.80;;;;;;4915968;29;20039;-88
2021/03/01 06:48:40;;;;;;;28.98;16.95;;;4.10;86.40;;;;;;4901869;29;20032;-88
2021/03/01 06:51:06;;;;;;;27.42;13.23;;;4.00;86.40;;;;;;4911720;29;20036;-87
2021/03/01 06:53:32;;;;;;;26.08;13.88;;;3.90;86.70;;;;;;4900539;29;20261;-86
2021/03/01 06:56:05;;;;;;;20.92;11.30;;;3.90;86.80;;;;;;4918585;29;20039;-86
2021/03/01 06:58:37;;;;;;;23.52;12.57;;;3.90;87.00;;;;;;4931423;29;20096;-86
2021/03/01 07:01:07;;;;;;;22.83;13.03;;;3.90;87.00;;;;;;4916058;29;20036;-87
2021/03/01 07:03:33;;;;;;;28.38;15.65;;;3.90;87.10;;;;;;4925198;29;20084;-87
2021/03/01 07:06:00;;;;;;;25.42;13.75;;;3.90;87.20;;;;;;4902181;29;20119;-88
2021/03/01 07:08:38;;;;;;;24.30;13.27;;;3.80;87.30;;;;;;4908016;29;20476;-88
2021/03/01 07:11:15;;;;;;;25.90;14.60;;;3.70;88.20;;;;;;4914411;29;20060;-86
2021/03/01 07:13:40;;;;;;;22.02;12.13;;;3.80;87.80;;;;;;4915847;29;20025;-89
2021/03/01 07:16:06;;;;;;;17.90;9.23;;;3.70;87.70;;;;;;4921852;29;20032;-88
2021/03/01 07:18:32;;;;;;;27.65;14.43;;;3.90;87.80;;;;;;4923018;29;20032;-88
2021/03/01 07:20:58;;;;;;;21.33;11.77;;;3.80;87.70;;;;;;4931086;29;20076;-89
2021/03/01 07:23:24;;;;;;;17.00;9.25;;;3.80;87.80;;;;;;4910881;29;20016;-87
2021/03/01 07:25:51;;;;;;;21.92;12.43;;;3.70;87.90;;;;;;4901921;29;20029;-86
2021/03/01 07:28:20;;;;;;;23.60;12.52;;;3.80;87.90;;;;;;4907345;29;20032;-87
2021/03/01 07:30:49;;;;;;;26.58;13.35;;;3.70;87.80;;;;;;4915394;29;20111;-87
2021/03/01 07:33:16;;;;;;;18.13;9.57;;;3.60;88.10;;;;;;4914968;29;20528;-89
2021/03/01 07:35:47;;;;;;;23.27;11.32;;;3.60;88.40;;;;;;4888753;29;20350;-88
2021/03/01 07:38:14;;;;;;;28.55;13.38;;;3.70;88.40;;;;;;4885010;29;20028;-88
2021/03/01 07:40:40;;;;;;;24.65;13.30;;;3.60;88.40;;;;;;4897693;29;20048;-88
2021/03/01 07:43:07;;;;;;;52.20;16.35;;;3.70;88.50;;;;;;4907067;29;20251;-86
2021/03/01 07:45:33;;;;;;;17.98;8.80;;;3.60;88.40;;;;;;4897629;29;20059;-87
2021/03/01 07:48:11;;;;;;;16.65;9.40;;;3.60;88.60;;;;;;4914869;29;20032;-88
2021/03/01 07:50:40;;;;;;;46.00;14.20;;;3.60;88.70;;;;;;4903521;29;20035;-88
2021/03/01 07:53:06;;;;;;;19.60;10.57;;;3.60;88.60;;;;;;4917236;29;20058;-88
2021/03/01 07:55:32;;;;;;;32.05;13.80;;;3.50;88.80;;;;;;4909796;29;20036;-86
2021/03/01 07:58:04;;;;;;;24.60;12.60;;;3.60;89.10;;;;;;4915930;29;20052;-88
2021/03/01 08:00:34;;;;;;;23.45;12.25;;;3.60;89.10;;;;;;4905471;29;20475;-87
2021/03/01 08:03:01;;;;;;;19.70;10.93;;;3.60;89.20;;;;;;4914756;29;20403;-86
2021/03/01 08:05:32;;;;;;;35.40;13.15;;;3.60;89.30;;;;;;4896986;29;20036;-88
2021/03/01 08:07:59;;;;;;;21.38;10.73;;;3.60;89.40;;;;;;4914298;29;20028;-86
2021/03/01 08:10:28;;;;;;;16.70;10.00;;;3.50;89.40;;;;;;4909235;29;20701;-91
2021/03/01 08:13:00;;;;;;;21.58;11.57;;;3.60;89.60;;;;;;4885871;29;20032;-93
2021/03/01 08:18:19;;;;;;;18.08;10.88;;;3.70;89.60;;;;;;4895194;29;20048;-93
2021/03/01 08:20:58;;;;;;;21.77;11.50;;;3.60;89.40;;;;;;4898644;29;20753;-93
2021/03/01 08:23:34;;;;;;;19.63;10.77;;;3.60;89.60;;;;;;4913701;29;20158;-91
2021/03/01 08:26:02;;;;;;;19.52;10.48;;;3.70;89.50;;;;;;4901094;29;20063;-92
2021/03/01 08:28:37;;;;;;;18.38;9.57;;;3.80;89.50;;;;;;4910085;29;20024;-92
2021/03/01 08:31:09;;;;;;;40.50;12.30;;;3.70;89.60;;;;;;4902279;29;20099;-95
2021/03/01 08:33:42;;;;;;;27.13;12.43;;;3.80;89.50;;;;;;4905723;29;20055;-92
2021/03/01 08:36:07;;;;;;;28.80;10.93;;;3.80;89.30;;;;;;4918999;29;20068;-92
2021/03/01 08:38:55;;;;;;;14.38;7.75;;;3.70;89.30;;;;;;4915923;29;20095;-92
2021/03/01 08:41:33;;;;;;;25.98;12.57;;;3.80;89.60;;;;;;4902052;29;20044;-92
2021/03/01 08:44:15;;;;;;;20.33;10.00;;;3.80;89.30;;;;;;4894318;29;20031;-92
2021/03/01 08:46:41;;;;;;;17.90;9.63;;;3.80;89.30;;;;;;4893677;29;20072;-93
2021/03/01 08:49:33;;;;;;;12.70;7.70;;;4.00;89.20;;;;;;4912589;29;20075;-95
2021/03/01 08:52:15;;;;;;;;;;;;;;;;;;;;;
2021/03/01 08:54:41;;;;;;;14.65;8.85;;;4.10;89.00;;;;;;4911020;29;20032;-93
2021/03/01 08:57:10;;;;;;;19.40;10.20;;;4.10;88.90;;;;;;4916462;29;20036;-92
2021/03/01 09:00:01;;;;;;;13.07;6.88;;;3.90;88.40;;;;;;4914228;29;20356;-91
2021/03/01 09:02:35;;;;;;;14.50;8.35;;;4.10;88.70;;;;;;4906273;29;20101;-95
2021/03/01 09:05:16;;;;;;;15.65;8.48;;;4.20;88.70;;;;;;4901781;29;20021;-91
2021/03/01 09:07:49;;;;;;;13.10;8.07;;;4.40;88.50;;;;;;4909163;29;20036;-92
2021/03/01 09:10:14;;;;;;;17.33;10.20;;;4.50;88.10;;;;;;4910396;29;20396;-93
2021/03/01 09:12:43;;;;;;;16.90;9.45;;;4.50;87.50;;;;;;4905002;29;20039;-92
2021/03/01 09:15:12;;;;;;;13.77;7.93;;;4.40;87.50;;;;;;4897675;29;20435;-92
2021/03/01 09:17:38;;;;;;;19.70;10.95;;;4.40;87.60;;;;;;4910596;29;20024;-92
2021/03/01 09:20:16;;;;;;;10.85;6.28;;;4.50;87.60;;;;;;4900338;29;20020;-91
2021/03/01 09:22:44;;;;;;;21.55;11.70;;;4.50;87.60;;;;;;4933245;29;20031;-91
2021/03/01 09:25:32;;;;;;;22.10;11.20;;;4.60;87.30;;;;;;4924435;28;20096;-90
2021/03/01 09:28:00;;;;;;;10.65;6.10;;;4.60;87.40;;;;;;4897270;29;20036;-91
2021/03/01 09:30:35;;;;;;;17.00;10.13;;;4.50;87.40;;;;;;4908403;29;20024;-91
2021/03/01 09:33:06;;;;;;;20.05;10.52;;;4.60;87.20;;;;;;4905311;29;20044;-92
2021/03/01 09:35:38;;;;;;;17.42;8.82;;;4.50;87.20;;;;;;4911862;29;20047;-91
2021/03/01 09:38:04;;;;;;;19.73;11.75;;;4.50;87.40;;;;;;4907051;29;20028;-91
2021/03/01 09:40:31;;;;;;;17.08;9.68;;;4.50;87.40;;;;;;4915678;29;20115;-92
2021/03/01 09:43:04;;;;;;;14.13;7.80;;;4.50;87.30;;;;;;4916524;29;20035;-91
2021/03/01 09:45:36;;;;;;;15.68;8.23;;;4.60;87.40;;;;;;4892174;29;20031;-92
2021/03/01 09:48:05;;;;;;;16.25;8.25;;;4.60;87.20;;;;;;4903504;29;20024;-91
2021/03/01 09:50:32;;;;;;;18.42;10.00;;;4.70;87.10;;;;;;4895817;29;20024;-90
2021/03/01 09:52:59;;;;;;;22.50;10.68;;;4.80;87.10;;;;;;4894901;29;20039;-93
2021/03/01 09:55:38;;;;;;;;;;;;;;;;;;;;;
2021/03/01 09:58:25;;;;;;;17.65;10.27;;;4.70;87.20;;;;;;4909815;29;20036;-92
2021/03/01 10:00:52;;;;;;;13.95;7.95;;;4.70;87.10;;;;;;4912483;29;20480;-94
2021/03/01 10:03:18;;;;;;;21.30;10.90;;;4.90;87.20;;;;;;4913220;29;20036;-91
2021/03/01 10:05:49;;;;;;;20.70;10.75;;;4.70;86.90;;;;;;4919890;29;20024;-92
2021/03/01 10:08:25;;;;;;;20.90;11.20;;;4.70;86.80;;;;;;4910455;29;20103;-93
2021/03/01 10:10:54;;;;;;;22.42;10.60;;;4.80;86.90;;;;;;4928012;29;20190;-93
2021/03/01 10:13:26;;;;;;;20.08;10.70;;;4.80;86.80;;;;;;4901778;29;20495;-92
2021/03/01 10:15:56;;;;;;;17.70;9.90;;;4.80;86.90;;;;;;4881314;29;20044;-91
2021/03/01 10:18:27;;;;;;;15.10;8.27;;;4.90;87.00;;;;;;4900984;29;20795;-91
2021/03/01 10:21:06;;;;;;;20.00;10.65;;;4.90;86.80;;;;;;4900422;29;20039;-91
2021/03/01 10:23:34;;;;;;;19.00;10.25;;;4.90;86.50;;;;;;4900566;29;20060;-95
2021/03/01 10:26:21;;;;;;;18.27;8.80;;;4.90;86.50;;;;;;4916395;29;20036;-94
2021/03/01 10:29:32;;;;;;;19.05;9.50;;;5.00;87.20;;;;;;4903093;29;20020;-95
2021/03/01 10:31:59;;;;;;;18.20;9.93;;;5.00;86.30;;;;;;4865932;29;20049;-95
2021/03/01 10:34:48;;;;;;;19.55;10.10;;;5.10;86.20;;;;;;4896440;29;20024;-96
2021/03/01 10:37:15;;;;;;;23.00;11.82;;;5.20;86.20;;;;;;4889784;29;20029;-95
2021/03/01 10:39:47;;;;;;;17.30;9.07;;;5.10;86.10;;;;;;4891393;29;20017;-92
2021/03/01 10:42:21;;;;;;;18.13;9.60;;;5.30;86.20;;;;;;4911183;29;20071;-92
2021/03/01 10:44:54;;;;;;;15.20;8.32;;;5.40;85.90;;;;;;4927635;29;20024;-93
2021/03/01 10:47:23;;;;;;;18.70;9.13;;;5.50;85.60;;;;;;4900374;29;20025;-94
2021/03/01 10:49:53;;;;;;;21.17;11.10;;;5.60;85.30;;;;;;4909842;29;20029;-93
2021/03/01 10:52:24;;;;;;;13.00;7.07;;;5.50;84.60;;;;;;4917696;29;20028;-94
2021/03/01 10:54:56;;;;;;;19.40;10.40;;;5.50;84.70;;;;;;4932414;29;20012;-93
2021/03/01 10:57:29;;;;;;;19.08;9.70;;;5.70;84.70;;;;;;4928300;29;20231;-92
2021/03/01 10:59:56;;;;;;;17.33;9.65;;;5.60;84.20;;;;;;4928039;29;20024;-90
2021/03/01 11:02:22;;;;;;;16.95;8.82;;;5.80;84.00;;;;;;4910399;29;20424;-89
2021/03/01 11:04:48;;;;;;;16.90;8.82;;;5.90;83.90;;;;;;4912419;29;20048;-93
2021/03/01 11:07:14;;;;;;;17.60;9.45;;;5.80;83.60;;;;;;4920867;29;20021;-93
2021/03/01 11:09:40;;;;;;;15.93;9.00;;;5.90;83.70;;;;;;4911607;29;20360;-93
2021/03/01 11:12:06;;;;;;;18.52;10.07;;;5.90;83.60;;;;;;4918210;29;20040;-93
2021/03/01 11:14:31;;;;;;;19.70;11.07;;;6.00;83.50;;;;;;4911176;29;20028;-94
2021/03/01 11:16:58;;;;;;;13.75;7.82;;;6.00;82.90;;;;;;4916852;29;20103;-92
2021/03/01 11:19:28;;;;;;;17.02;8.77;;;6.00;83.00;;;;;;4901783;29;20028;-91
2021/03/01 11:21:54;;;;;;;16.45;9.38;;;6.10;82.80;;;;;;4902385;29;20032;-92
2021/03/01 11:24:23;;;;;;;15.48;8.85;;;6.10;82.20;;;;;;4921231;29;20058;-94
2021/03/01 11:27:02;;;;;;;13.52;7.93;;;6.10;82.60;;;;;;4912876;29;20589;-93
2021/03/01 11:29:36;;;;;;;14.38;8.23;;;6.10;82.70;;;;;;4914163;29;20034;-92
2021/03/01 11:32:06;;;;;;;17.35;9.23;;;6.10;82.50;;;;;;4921443;29;20170;-93
2021/03/01 11:34:32;;;;;;;13.88;7.72;;;6.20;82.20;;;;;;4906446;29;20029;-95
2021/03/01 11:37:03;;;;;;;9.90;6.07;;;6.30;82.10;;;;;;4917292;29;20051;-94
2021/03/01 11:39:29;;;;;;;10.90;6.50;;;6.40;82.20;;;;;;4908562;29;20028;-96
2021/03/01 11:41:55;;;;;;;14.02;7.32;;;6.70;81.80;;;;;;4890087;29;20478;-94
2021/03/01 11:44:20;;;;;;;15.15;7.78;;;6.90;81.30;;;;;;4889117;29;20036;-93
2021/03/01 11:46:47;;;;;;;14.43;8.50;;;7.00;80.70;;;;;;4919932;29;20020;-93
2021/03/01 11:49:12;;;;;;;12.68;7.78;;;6.90;79.80;;;;;;4907834;29;20119;-93
2021/03/01 11:51:38;;;;;;;13.90;8.43;;;6.90;79.90;;;;;;4919515;29;20060;-93
2021/03/01 11:54:26;;;;;;;10.27;6.25;;;6.80;79.80;;;;;;4906808;29;20023;-94
2021/03/01 11:56:53;;;;;;;9.77;6.13;;;6.90;80.00;;;;;;4906064;29;20064;-91
2021/03/01 11:59:19;;;;;;;11.50;7.32;;;7.00;80.00;;;;;;4912443;29;20020;-91
2021/03/01 12:01:44;;;;;;;14.10;7.75;;;7.10;79.90;;;;;;4914446;29;20111;-92
2021/03/01 12:04:10;;;;;;;16.25;9.88;;;7.30;79.20;;;;;;4903469;29;20115;-91
2021/03/01 12:06:36;;;;;;;11.95;7.85;;;7.20;78.90;;;;;;4915644;28;20051;-93
2021/03/01 12:09:02;;;;;;;14.68;8.70;;;7.30;78.80;;;;;;4915956;29;20044;-93
2021/03/01 12:11:27;;;;;;;12.48;7.65;;;7.20;78.70;;;;;;4929460;29;20056;-91
2021/03/01 12:13:53;;;;;;;11.27;6.60;;;7.30;78.80;;;;;;4929014;28;20051;-91
2021/03/01 12:16:18;;;;;;;13.88;8.52;;;7.50;78.80;;;;;;4926709;29;20105;-92
2021/03/01 12:18:44;;;;;;;13.32;8.93;;;7.70;77.90;;;;;;4926223;29;20017;-93
2021/03/01 12:21:12;;;;;;;11.45;7.18;;;7.70;77.20;;;;;;4913279;29;20044;-93
2021/03/01 12:23:38;;;;;;;13.23;8.52;;;7.90;77.40;;;;;;4929539;29;20079;-91
2021/03/01 12:26:04;;;;;;;15.40;9.63;;;8.00;77.10;;;;;;4935082;29;20016;-89
2021/03/01 12:28:29;;;;;;;15.55;9.60;;;8.20;76.30;;;;;;4932907;29;20028;-93
2021/03/01 12:30:55;;;;;;;12.70;8.20;;;8.10;75.80;;;;;;4924454;29;20610;-91
2021/03/01 12:33:20;;;;;;;13.15;7.78;;;8.10;75.70;;;;;;4919302;29;20173;-93
2021/03/01 12:35:46;;;;;;;12.30;7.97;;;8.20;75.60;;;;;;4916886;29;20020;-92
2021/03/01 12:38:13;;;;;;;14.20;8.45;;;8.30;75.90;;;;;;4904422;29;20686;-92
2021/03/01 12:40:38;;;;;;;15.98;8.15;;;8.50;75.70;;;;;;4905060;29;20028;-91
2021/03/01 12:43:05;;;;;;;15.65;8.98;;;8.80;75.40;;;;;;4920479;29;20030;-92
2021/03/01 12:45:32;;;;;;;14.18;8.98;;;8.90;74.20;;;;;;4902768;29;20028;-92
2021/03/01 12:47:58;;;;;;;17.05;9.75;;;8.90;73.60;;;;;;4908728;29;20017;-94
2021/03/01 12:50:24;;;;;;;15.57;8.70;;;8.80;73.30;;;;;;4911233;29;20056;-94
2021/03/01 12:52:50;;;;;;;13.00;7.65;;;8.90;73.80;;;;;;4919119;29;20036;-93
2021/03/01 12:55:15;;;;;;;13.35;8.07;;;9.00;73.60;;;;;;4918581;29;20080;-94